Time;durP1;ratioP1;P1;durP2;ratioP2;P2;SDS_P1;SDS_P2;PMS_P1;PMS_P2;Temp;Humidity;BMP_temperature;BMP_pressure;BME280_temperature;BME280_humidity;BME280_pressure;Samples;Min_cycle;Max_cycle;Signal;HPM_P1;HPM_P2
2022/08/10 04:17:13;;;;;;;8.73;5.00;;;15.40;99.90;;;-144.05;68.22;125687.94;4940080;29;20048;-89
2022/08/10 04:19:50;;;;;;;13.00;5.93;;;15.40;99.90;;;-144.05;68.18;125687.94;4924667;29;20090;-89
2022/08/10 04:22:26;;;;;;;9.50;6.20;;;15.40;99.90;;;-144.05;67.77;125687.94;4925321;29;20057;-90
2022/08/10 04:25:03;;;;;;;8.95;4.90;;;15.50;99.90;;;-144.05;67.36;125687.94;4925386;29;20071;-86
2022/08/10 04:28:02;;;;;;;9.60;5.10;;;15.50;99.90;;;-144.05;67.17;125687.94;4925464;29;20369;-90
2022/08/10 04:30:38;;;;;;;7.60;4.60;;;15.60;99.90;;;-144.05;66.78;125687.94;4917788;29;20046;-88
2022/08/10 04:33:17;;;;;;;;;;;15.60;99.90;;;-144.05;66.63;125687.94;4909946;29;20051;-90
2022/08/10 04:35:56;;;;;;;14.13;5.55;;;15.60;99.90;;;-144.05;66.29;125687.94;4942453;29;19911;-90
2022/08/10 04:38:30;;;;;;;9.75;5.50;;;15.70;99.90;;;-144.05;66.38;125687.94;4924974;29;20126;-88
2022/08/10 04:40:57;;;;;;;7.15;5.03;;;15.70;99.90;;;-144.05;66.18;125687.94;4925784;29;20142;-89
2022/08/10 04:43:23;;;;;;;13.75;5.45;;;15.70;99.90;;;-144.05;66.48;125687.94;4923855;29;20461;-89
2022/08/10 04:45:49;;;;;;;10.60;5.80;;;15.70;99.90;;;-144.05;65.92;125687.94;4924897;29;20023;-89
2022/08/10 04:48:23;;;;;;;11.18;5.82;;;15.70;99.90;;;-144.05;65.70;125687.94;4941628;29;20054;-87
2022/08/10 04:50:50;;;;;;;9.48;4.88;;;15.80;99.90;;;-144.05;65.10;125687.94;4926831;29;20024;-89
2022/08/10 04:53:16;;;;;;;7.20;4.47;;;15.80;99.90;;;-144.05;64.99;125687.94;4926124;29;20401;-87
2022/08/10 04:55:42;;;;;;;10.38;4.95;;;15.80;99.90;;;-144.05;64.86;125687.94;4943425;29;20150;-88
2022/08/10 04:58:08;;;;;;;6.60;5.00;;;15.80;99.90;;;-144.05;64.89;125687.94;4931903;29;20036;-91
2022/08/10 05:00:35;;;;;;;6.30;5.03;;;15.80;99.90;;;-144.05;64.68;125687.94;4947258;29;20159;-89
2022/08/10 05:03:01;;;;;;;6.55;4.75;;;15.80;99.90;;;-144.05;64.49;125687.94;4932447;29;20456;-88
2022/08/10 05:05:27;;;;;;;9.13;5.00;;;15.80;99.90;;;-144.05;64.36;125687.94;4932325;29;20091;-92
2022/08/10 05:07:53;;;;;;;11.02;4.85;;;15.90;99.90;;;-144.05;63.86;125687.94;4932862;29;20052;-90
2022/08/10 05:10:25;;;;;;;8.55;5.00;;;16.00;99.90;;;-144.05;63.67;125687.94;4950227;29;20032;-89
2022/08/10 05:12:53;;;;;;;8.20;4.82;;;16.00;99.90;;;-144.05;63.76;125687.94;4915235;29;20039;-91
2022/08/10 05:15:21;;;;;;;9.85;5.10;;;16.10;99.90;;;-144.05;63.21;125687.94;4931697;29;20035;-91
2022/08/10 05:17:47;;;;;;;8.82;4.80;;;16.10;99.90;;;-144.05;63.08;125687.94;4928211;29;20034;-90
2022/08/10 05:20:14;;;;;;;7.70;4.80;;;16.20;99.90;;;-144.05;62.91;125687.94;4941972;29;20036;-91
2022/08/10 05:22:44;;;;;;;8.52;4.65;;;16.30;99.90;;;-144.05;62.57;125687.94;4928074;29;20454;-89
2022/08/10 05:25:19;;;;;;;10.27;4.60;;;16.50;99.90;;;-144.05;61.44;125687.94;4928161;29;20059;-88
2022/08/10 05:27:47;;;;;;;11.52;4.78;;;16.70;99.90;;;-144.05;60.40;125687.94;4931812;29;20095;-90
2022/08/10 05:30:20;;;;;;;8.73;4.40;;;16.80;99.90;;;-144.05;59.86;125687.94;4940789;29;20043;-87
2022/08/10 05:32:49;;;;;;;6.25;4.45;;;17.00;99.90;;;-144.05;58.92;125687.94;4939882;29;20027;-88
2022/08/10 05:35:15;;;;;;;8.57;4.22;;;17.20;99.90;;;-144.05;58.05;125687.94;4937023;29;20114;-90
2022/08/10 05:37:45;;;;;;;6.38;4.25;;;17.30;99.90;;;-144.05;56.79;125687.94;4926085;29;20028;-87
2022/08/10 05:40:12;;;;;;;9.75;4.50;;;17.50;99.90;;;-144.05;56.06;125687.94;4935464;29;20028;-88
2022/08/10 05:42:40;;;;;;;9.38;3.80;;;17.70;99.90;;;-144.05;56.04;125687.94;4929633;29;20043;-90
2022/08/10 05:45:18;;;;;;;6.72;4.55;;;17.80;99.90;;;-144.05;54.81;125687.94;4925044;29;20032;-90
2022/08/10 05:47:44;;;;;;;6.82;4.07;;;18.00;99.90;;;-144.05;53.57;125687.94;4923666;29;20184;-89
2022/08/10 05:50:13;;;;;;;8.75;4.20;;;18.20;99.90;;;-144.05;52.08;125687.94;4923472;29;20030;-89
2022/08/10 05:52:39;;;;;;;9.88;4.03;;;18.40;99.90;;;-144.05;50.91;125687.94;4922961;29;20024;-91
2022/08/10 05:55:25;;;;;;;7.95;3.67;;;18.60;99.90;;;-144.05;50.84;125687.94;4923187;29;20035;-91
2022/08/10 05:57:52;;;;;;;6.03;4.07;;;18.70;99.90;;;-144.05;49.74;125687.94;4907134;29;20032;-88
2022/08/10 06:00:20;;;;;;;7.40;4.05;;;19.00;99.90;;;-144.05;48.62;125687.94;4925146;29;20047;-91
2022/08/10 06:03:00;;;;;;;9.88;4.43;;;19.10;99.90;;;-144.05;49.26;125687.94;4940001;29;20071;-91
2022/08/10 06:05:35;;;;;;;7.00;4.03;;;19.10;99.90;;;-144.05;48.37;125687.94;4922358;29;20046;-91
2022/08/10 06:08:14;;;;;;;7.35;4.00;;;19.40;99.90;;;-144.05;48.09;125687.94;4922927;29;20133;-90
2022/08/10 06:10:44;;;;;;;9.07;4.13;;;19.60;99.90;;;-144.05;47.65;125687.94;4923227;29;20385;-89
2022/08/10 06:16:12;;;;;;;8.70;3.72;;;20.10;99.90;;;-144.05;46.55;125687.94;4939278;29;20438;-88
2022/08/10 06:18:38;;;;;;;7.50;4.35;;;20.30;99.90;;;-144.05;45.75;125687.94;4940731;29;20031;-88
2022/08/10 06:21:08;;;;;;;8.35;4.28;;;20.50;99.90;;;-144.05;45.00;125687.94;4922684;29;20042;-91
2022/08/10 06:23:36;;;;;;;8.55;4.13;;;20.60;99.90;;;-144.05;45.16;125687.94;4922301;29;20059;-91
2022/08/10 06:26:02;;;;;;;6.70;3.75;;;20.70;99.90;;;-144.05;44.96;125687.94;4922736;29;20096;-88
2022/08/10 06:28:38;;;;;;;6.55;3.60;;;20.80;99.90;;;-144.05;44.32;125687.94;4922372;29;20477;-88
2022/08/10 06:31:08;;;;;;;6.20;3.47;;;20.90;99.90;;;-144.05;44.61;125687.94;4922644;29;20059;-88
2022/08/10 06:33:39;;;;;;;7.93;3.65;;;21.00;99.90;;;-144.05;43.86;125687.94;4938574;29;20032;-88
2022/08/10 06:36:10;;;;;;;5.90;3.47;;;21.00;99.90;;;-144.05;44.20;125687.94;4923444;29;20091;-91
2022/08/10 06:38:41;;;;;;;4.60;3.47;;;21.20;99.90;;;-144.05;43.00;125687.94;4924164;29;20561;-90
2022/08/10 06:41:23;;;;;;;11.02;3.97;;;21.30;99.90;;;-144.05;42.57;125687.94;4923562;29;20160;-91
2022/08/10 06:44:04;;;;;;;6.45;3.90;;;21.50;99.90;;;-144.05;42.06;125687.94;4938942;29;20493;-88
2022/08/10 06:46:42;;;;;;;5.88;3.60;;;21.70;99.90;;;-144.05;42.00;125687.94;4923908;29;20031;-88
2022/08/10 06:49:10;;;;;;;5.78;3.40;;;21.80;99.90;;;-144.05;41.46;125687.94;4923266;29;20036;-90
2022/08/10 06:51:42;;;;;;;7.00;3.33;;;22.10;99.90;;;-144.05;40.85;125687.94;4923477;29;20229;-89
2022/08/10 06:54:16;;;;;;;8.85;3.13;;;22.30;99.90;;;-144.05;40.76;125687.94;4939477;29;20036;-89
2022/08/10 06:56:45;;;;;;;4.70;3.10;;;22.50;99.90;;;-144.05;40.58;125687.94;4923797;29;20074;-89
2022/08/10 06:59:36;;;;;;;5.13;2.83;;;22.70;99.90;;;-144.05;39.95;125687.94;4940435;29;20037;-92
2022/08/10 07:02:12;;;;;;;5.85;3.15;;;22.90;99.90;;;-144.05;39.72;125687.94;4925353;29;20145;-89
2022/08/10 07:05:07;;;;;;;4.57;2.85;;;23.10;99.90;;;-144.05;39.30;125687.94;4925171;29;20028;-89
2022/08/10 07:07:40;;;;;;;5.43;3.17;;;23.20;99.90;;;-144.05;38.48;125687.94;4927528;29;20030;-89
2022/08/10 07:10:11;;;;;;;5.55;2.90;;;23.40;99.90;;;-144.05;38.53;125687.94;4928896;29;20119;-90
2022/08/10 07:12:39;;;;;;;6.38;2.78;;;23.40;99.90;;;-144.05;38.45;125687.94;4929382;29;20035;-91
2022/08/10 07:15:11;;;;;;;8.52;2.78;;;23.60;99.90;;;-144.05;38.13;125687.94;4932557;29;20054;-87
2022/08/10 07:17:40;;;;;;;6.47;2.72;;;23.90;99.90;;;-144.05;37.49;125687.94;4938358;29;20063;-86
2022/08/10 07:20:13;;;;;;;5.68;2.72;;;24.00;99.90;;;-144.05;37.14;125687.94;4938632;29;20047;-88
2022/08/10 07:22:42;;;;;;;5.50;2.70;;;24.10;99.90;;;-144.05;36.97;125687.94;4943196;29;20116;-88
2022/08/10 07:25:12;;;;;;;6.03;2.83;;;24.10;99.90;;;-144.05;36.32;125687.94;4930608;29;20137;-87
2022/08/10 07:27:41;;;;;;;5.10;2.38;;;24.40;99.90;;;-144.05;36.16;125687.94;4927018;29;20032;-87
2022/08/10 07:30:08;;;;;;;6.10;3.10;;;24.70;99.90;;;-144.05;35.73;125687.94;4936300;29;20095;-87
2022/08/10 07:32:40;;;;;;;8.70;2.53;;;24.60;99.90;;;-144.05;35.87;125687.94;4934982;29;20470;-89
2022/08/10 07:35:13;;;;;;;5.10;2.15;;;24.50;99.90;;;-144.05;36.18;125687.94;4926355;29;20165;-91
2022/08/10 07:37:45;;;;;;;4.47;2.40;;;24.50;99.90;;;-144.05;36.14;125687.94;4943543;29;20401;-90
2022/08/10 07:40:18;;;;;;;5.03;2.38;;;24.40;99.90;;;-144.05;35.97;125687.94;4942052;29;20051;-90
2022/08/10 07:42:50;;;;;;;9.57;2.50;;;24.50;99.60;;;-144.05;35.79;125687.94;4942957;29;20074;-89
2022/08/10 07:45:18;;;;;;;6.82;2.40;;;24.70;99.90;;;-144.05;35.33;125687.94;4925313;29;20091;-89
2022/08/10 07:48:14;;;;;;;3.33;2.40;;;24.70;98.60;;;-144.05;35.04;125687.94;4925480;29;20039;-93
2022/08/10 07:50:43;;;;;;;;;;;24.90;98.00;;;-144.05;34.77;125687.94;4925196;29;20039;-88
2022/08/10 07:53:23;;;;;;;2.95;2.05;;;25.30;97.30;;;-144.05;34.33;125687.94;4925342;29;19958;-88
2022/08/10 07:55:52;;;;;;;4.88;2.50;;;25.50;95.90;;;-144.05;33.83;125687.94;4924373;29;20042;-90
2022/08/10 07:58:28;;;;;;;6.90;2.38;;;25.70;94.90;;;-144.05;33.32;125687.94;4925375;29;20075;-89
2022/08/10 08:00:58;;;;;;;7.13;2.70;;;25.90;93.60;;;-144.05;32.97;125687.94;4925108;29;20055;-89
2022/08/10 08:03:29;;;;;;;5.78;2.70;;;25.90;92.70;;;-144.05;32.96;125687.94;4925186;29;20481;-89
2022/08/10 08:06:01;;;;;;;4.50;2.55;;;26.10;92.30;;;-144.05;32.90;125687.94;4927365;29;20029;-89
2022/08/10 08:08:31;;;;;;;6.10;2.45;;;26.30;91.90;;;-144.05;32.43;125687.94;4923963;29;20393;-90
2022/08/10 08:10:59;;;;;;;7.10;2.58;;;26.60;91.80;;;-144.05;31.97;125687.94;4923195;29;20031;-91
2022/08/10 08:13:29;;;;;;;3.25;2.00;;;26.90;90.40;;;-144.05;31.90;125687.94;4914304;29;20035;-92
2022/08/10 08:15:57;;;;;;;4.43;2.05;;;27.20;90.10;;;-144.05;31.39;125687.94;4906233;29;20028;-90
2022/08/10 08:18:27;;;;;;;6.32;2.10;;;27.40;86.90;;;-144.05;30.73;125687.94;4918739;29;20100;-90
2022/08/10 08:20:54;;;;;;;4.72;2.22;;;27.50;84.20;;;-144.05;31.11;125687.94;4922973;29;20048;-88
2022/08/10 08:23:22;;;;;;;4.03;2.38;;;27.50;84.30;;;-144.05;31.52;125687.94;4936120;29;20087;-91
2022/08/10 08:25:49;;;;;;;6.47;2.38;;;27.70;85.30;;;-144.05;30.68;125687.94;4927868;29;20028;-89
2022/08/10 08:28:16;;;;;;;5.03;2.47;;;27.70;80.90;;;-144.05;30.78;125687.94;4907504;29;20028;-90
2022/08/10 08:30:52;;;;;;;5.07;2.05;;;27.60;80.40;;;-144.05;31.18;125687.94;4906810;29;20039;-90
2022/08/10 08:33:21;;;;;;;7.18;2.20;;;27.40;80.20;;;-144.05;30.63;125687.94;4905646;29;20028;-88
2022/08/10 08:35:49;;;;;;;5.90;2.78;;;27.50;79.70;;;-144.05;30.78;125687.94;4922888;29;20031;-87
2022/08/10 08:38:17;;;;;;;6.13;2.75;;;27.80;79.10;;;-144.05;30.02;125687.94;4905988;29;20088;-90
2022/08/10 08:41:22;;;;;;;6.28;2.47;;;27.90;76.70;;;-144.05;30.32;125687.94;4906996;29;20504;-91
2022/08/10 08:44:22;;;;;;;5.05;2.75;;;28.10;77.50;;;-144.05;30.42;125687.94;4921846;29;20036;-88
2022/08/10 08:48:07;;;;;;;1.90;1.70;;;28.00;76.50;;;-144.05;30.14;125687.94;4900812;29;20100;-90
2022/08/10 08:51:15;;;;;;;4.68;2.42;;;28.20;75.60;;;-144.05;29.60;125687.94;4909507;29;20178;-93
2022/08/10 08:54:01;;;;;;;7.45;2.40;;;28.30;73.20;;;-144.05;29.62;125687.94;4908815;29;20058;-89
2022/08/10 08:56:53;;;;;;;3.67;1.92;;;28.30;72.60;;;-144.05;29.71;125687.94;4922391;29;20148;-90
2022/08/10 09:00:13;;;;;;;5.90;2.15;;;28.20;72.60;;;-144.05;29.76;125687.94;4923308;29;20483;-88
2022/08/10 09:03:25;;;;;;;6.03;2.45;;;28.60;73.60;;;-144.05;28.97;125687.94;4909787;29;20032;-90
2022/08/10 09:06:50;;;;;;;4.32;2.22;;;28.90;69.80;;;-144.05;28.97;125687.94;4906629;29;20111;-89
2022/08/10 09:10:00;;;;;;;5.13;2.30;;;28.80;68.60;;;-144.05;28.77;125687.94;4925667;29;20038;-88
2022/08/10 09:13:40;;;;;;;4.65;2.70;;;29.00;68.40;;;-144.05;28.33;125687.94;4907920;29;20039;-89
2022/08/10 09:16:46;;;;;;;5.55;2.40;;;29.30;67.20;;;-144.05;28.71;125687.94;4920801;29;20059;-90
2022/08/10 09:19:49;;;;;;;6.60;2.33;;;29.30;67.30;;;-144.05;28.78;125687.94;4928900;29;20128;-87
2022/08/10 09:23:09;;;;;;;8.40;2.63;;;29.40;66.40;;;-144.05;28.73;125687.94;4934362;29;20047;-91
2022/08/10 09:25:52;;;;;;;5.53;2.30;;;29.30;66.20;;;-144.05;28.79;125687.94;4943850;29;20027;-91
2022/08/10 09:28:35;;;;;;;6.15;2.47;;;29.60;66.40;;;-144.05;28.77;125687.94;4928169;29;20030;-88
2022/08/10 09:31:12;;;;;;;7.07;2.33;;;29.50;65.90;;;-144.05;28.14;125687.94;4925475;29;20034;-89
2022/08/10 09:34:29;;;;;;;3.90;2.30;;;29.50;64.30;;;-144.05;27.75;125687.94;4926381;29;20030;-91
2022/08/10 09:37:20;;;;;;;;;;;29.70;63.40;;;-144.05;27.55;125687.94;4925074;29;20115;-87
2022/08/10 09:40:04;;;;;;;3.58;2.20;;;30.10;63.30;;;-144.05;27.53;125687.94;4924790;29;19910;-89
2022/08/10 09:43:17;;;;;;;6.13;2.35;;;30.10;61.70;;;-144.05;27.76;125687.94;4925577;29;20019;-87
2022/08/10 09:46:13;;;;;;;6.07;1.88;;;30.40;62.10;;;-144.05;26.94;125687.94;4926254;29;20032;-88
2022/08/10 09:49:10;;;;;;;5.70;2.20;;;30.50;60.70;;;-144.05;27.02;125687.94;4941385;29;20027;-89
2022/08/10 09:51:58;;;;;;;5.78;2.00;;;30.60;60.40;;;-144.05;26.81;125687.94;4925052;29;20040;-89
2022/08/10 09:54:55;;;;;;;4.15;2.42;;;30.60;59.70;;;-144.05;26.93;125687.94;4925296;29;20032;-91
2022/08/10 09:57:37;;;;;;;;;;;30.40;58.70;;;-144.05;26.81;125687.94;4942547;29;20059;-87
2022/08/10 10:00:11;;;;;;;4.25;2.20;;;30.60;58.80;;;-144.05;26.54;125687.94;4925281;29;19961;-90
2022/08/10 10:02:56;;;;;;;4.45;2.13;;;30.50;58.10;;;-144.05;26.45;125687.94;4942283;29;20401;-91
2022/08/10 10:06:15;;;;;;;4.78;2.35;;;30.50;57.60;;;-144.05;26.22;125687.94;4940480;29;20027;-89
2022/08/10 10:09:10;;;;;;;5.72;2.50;;;30.60;57.60;;;-144.05;27.00;125687.94;4926767;29;20023;-86
2022/08/10 10:12:08;;;;;;;3.35;1.77;;;30.80;59.10;;;-144.05;26.21;125687.94;4940450;29;20020;-88
2022/08/10 10:15:20;;;;;;;4.90;2.08;;;31.20;56.30;;;-144.05;26.64;125687.94;4983311;23;20150;-88
2022/08/10 10:18:32;;;;;;;3.17;2.00;;;31.40;58.00;;;-144.05;25.80;125687.94;4958434;29;20032;-87
2022/08/10 10:21:24;;;;;;;3.95;1.80;;;31.40;55.30;;;-144.05;25.75;125687.94;4957933;29;20023;-88
2022/08/10 10:24:14;;;;;;;2.15;1.73;;;31.40;55.10;;;-144.05;25.58;125687.94;4956844;29;20027;-83
2022/08/10 10:26:55;;;;;;;4.88;1.85;;;31.60;54.40;;;-144.05;25.10;125687.94;4958404;29;20058;-90
2022/08/10 10:29:58;;;;;;;6.10;2.30;;;31.70;53.10;;;-144.05;25.40;125687.94;4941649;29;20040;-89
2022/08/10 10:33:11;;;;;;;2.35;1.73;;;31.70;54.10;;;-144.05;25.10;125687.94;4943020;29;20440;-92
2022/08/10 10:35:51;;;;;;;6.13;2.00;;;31.60;52.60;;;-144.05;24.95;125687.94;4940001;29;20053;-87
2022/08/10 10:38:29;;;;;;;4.57;2.20;;;31.60;52.10;;;-144.05;24.79;125687.94;4940226;29;20087;-87
2022/08/10 10:41:03;;;;;;;3.00;1.70;;;31.60;51.30;;;-144.05;25.17;125687.94;4957267;28;20083;-84
2022/08/10 10:43:57;;;;;;;6.22;2.17;;;31.40;51.90;;;-144.05;24.94;125687.94;4940518;29;20498;-84
2022/08/10 10:47:26;;;;;;;5.03;1.90;;;31.50;52.40;;;-144.05;25.50;125687.94;4941607;29;20035;-84
2022/08/10 10:50:21;;;;;;;4.63;2.22;;;31.60;52.30;;;-144.05;24.62;125687.94;4941595;29;20473;-84
2022/08/10 10:53:09;;;;;;;2.92;1.70;;;32.00;51.60;;;-144.05;24.21;125687.94;4960677;29;20023;-83
2022/08/10 10:56:29;;;;;;;3.13;1.85;;;32.10;50.60;;;-144.05;24.55;125687.94;4941723;29;20035;-86
2022/08/10 10:59:36;;;;;;;2.90;2.08;;;32.00;50.80;;;-144.05;24.40;125687.94;4938264;29;20509;-86
2022/08/10 11:02:32;;;;;;;2.30;1.73;;;31.80;50.30;;;-144.05;24.74;125687.94;4961971;29;20027;-90
2022/08/10 11:05:30;;;;;;;4.03;1.50;;;32.00;50.80;;;-144.05;24.21;125687.94;4942536;29;20028;-88
2022/08/10 11:08:27;;;;;;;5.53;1.55;;;32.20;50.00;;;-144.05;24.36;125687.94;4945032;29;20066;-89
2022/08/10 11:11:02;;;;;;;5.75;1.90;;;32.30;50.50;;;-144.05;24.27;125687.94;4938252;29;20039;-89
2022/08/10 11:13:45;;;;;;;2.97;1.90;;;32.10;48.90;;;-144.05;24.36;125687.94;4956504;28;20031;-87
2022/08/10 11:16:43;;;;;;;2.70;1.90;;;32.10;50.00;;;-144.05;24.13;125687.94;4963282;28;20034;-89
2022/08/10 11:19:38;;;;;;;2.33;1.70;;;32.00;48.60;;;-144.05;24.77;125687.94;4947618;28;20054;-90
2022/08/10 11:22:48;;;;;;;2.42;1.80;;;32.00;49.60;;;-144.05;24.56;125687.94;4963588;28;20029;-89
2022/08/10 11:25:51;;;;;;;2.40;1.70;;;31.70;49.50;;;-144.05;25.02;125687.94;4979511;28;20031;-90
2022/08/10 11:28:30;;;;;;;3.58;1.50;;;31.60;50.40;;;-144.05;24.17;125687.94;4964238;28;20038;-90
2022/08/10 11:31:15;;;;;;;3.50;1.95;;;31.60;48.70;;;-144.05;24.37;125687.94;4979882;28;20026;-88
2022/08/10 11:34:05;;;;;;;4.78;1.60;;;31.90;49.60;;;-144.05;25.49;125687.94;4966360;28;20034;-89
2022/08/10 11:37:36;;;;;;;4.13;1.80;;;32.20;51.50;;;-144.05;23.56;125687.94;4966614;28;20038;-86
2022/08/10 11:40:38;;;;;;;3.90;1.92;;;32.60;48.10;;;-144.05;24.07;125687.94;4960782;28;20037;-89
2022/08/10 11:43:21;;;;;;;4.50;2.17;;;32.20;48.50;;;-144.05;23.97;125687.94;4961802;28;20027;-89
2022/08/10 11:46:08;;;;;;;2.38;1.67;;;32.50;48.40;;;-144.05;23.87;125687.94;4976786;28;20047;-86
2022/08/10 11:48:48;;;;;;;5.00;1.83;;;32.50;47.90;;;-144.05;23.88;125687.94;4962769;28;20042;-88
2022/08/10 11:51:40;;;;;;;3.05;1.60;;;32.30;47.90;;;-144.05;24.30;125687.94;4979327;28;20137;-89
2022/08/10 11:54:13;;;;;;;4.15;1.90;;;32.50;49.10;;;-144.05;24.21;125687.94;4966883;28;20038;-88
2022/08/10 11:56:55;;;;;;;4.93;2.03;;;32.60;48.60;;;-144.05;24.14;125687.94;4964764;28;20388;-87
2022/08/10 12:02:20;;;;;;;4.65;2.10;;;32.40;48.60;;;-144.05;24.07;125687.94;4984978;28;20042;-87
2022/08/10 12:04:54;;;;;;;4.10;1.67;;;32.20;47.80;;;-144.05;23.63;125687.94;4995150;28;20023;-88
2022/08/10 12:07:26;;;;;;;5.03;2.00;;;31.90;46.70;;;-144.05;24.09;125687.94;4969424;28;20468;-89
2022/08/10 12:09:55;;;;;;;3.55;2.00;;;32.00;47.00;;;-144.05;23.89;125687.94;4981413;28;20026;-88
2022/08/10 12:12:29;;;;;;;3.65;1.75;;;32.00;47.60;;;-144.05;23.90;125687.94;4963864;28;20027;-89
2022/08/10 12:15:14;;;;;;;3.78;1.95;;;32.40;47.40;;;-144.05;24.09;125687.94;4982023;28;20085;-86
2022/08/10 12:17:52;;;;;;;6.97;2.17;;;32.70;48.10;;;-144.05;24.00;125687.94;4981556;28;20031;-88
2022/08/10 12:20:33;;;;;;;4.25;2.17;;;32.60;47.40;;;-144.05;23.83;125687.94;4964462;28;20278;-88
2022/08/10 12:23:32;;;;;;;4.90;1.75;;;32.40;47.40;;;-144.05;23.76;125687.94;4965867;28;20031;-90
2022/08/10 12:26:17;;;;;;;3.90;1.60;;;32.70;47.40;;;-144.05;23.29;125687.94;4979534;28;20035;-88
2022/08/10 12:29:13;;;;;;;2.83;1.40;;;32.70;45.90;;;-144.05;23.17;125687.94;4963898;28;20121;-91
2022/08/10 12:32:16;;;;;;;3.17;1.83;;;32.40;45.40;;;-144.05;23.95;125687.94;4980294;28;20035;-88
2022/08/10 12:35:11;;;;;;;2.65;1.80;;;32.00;46.80;;;-144.05;23.84;125687.94;4962324;28;20031;-88
2022/08/10 12:38:20;;;;;;;2.78;1.75;;;32.10;46.70;;;-144.05;23.85;125687.94;4962941;28;20027;-89
2022/08/10 12:40:57;;;;;;;2.90;1.63;;;31.90;47.00;;;-144.05;23.78;125687.94;4964120;28;20027;-87
2022/08/10 12:43:52;;;;;;;2.45;1.60;;;32.00;47.20;;;-144.05;23.81;125687.94;4962782;28;20026;-89
2022/08/10 12:46:35;;;;;;;3.25;1.65;;;31.80;48.40;;;-144.05;24.66;125687.94;4979336;28;20130;-89
2022/08/10 12:49:25;;;;;;;2.08;1.83;;;32.00;48.50;;;-144.05;24.23;125687.94;4963258;28;20111;-88
2022/08/10 12:52:23;;;;;;;1.83;1.35;;;32.10;45.90;;;-144.05;23.20;125687.94;4979417;28;20031;-87
2022/08/10 12:54:55;;;;;;;2.40;1.67;;;32.30;45.60;;;-144.05;22.67;125687.94;4947420;28;20082;-88
2022/08/10 12:57:24;;;;;;;2.60;1.80;;;32.50;44.30;;;-144.05;22.97;125687.94;4963444;28;20031;-87
2022/08/10 12:59:59;;;;;;;3.65;1.45;;;32.40;44.90;;;-144.05;22.92;125687.94;4980351;28;20035;-90
2022/08/10 13:02:39;;;;;;;3.80;1.58;;;32.40;44.30;;;-144.05;22.96;125687.94;4964190;28;20054;-92
2022/08/10 13:05:12;;;;;;;3.08;1.45;;;32.60;44.50;;;-144.05;22.92;125687.94;4978658;28;20027;-89
2022/08/10 13:07:45;;;;;;;2.05;1.52;;;32.40;45.00;;;-144.05;23.43;125687.94;4963990;28;20046;-89
2022/08/10 13:10:16;;;;;;;5.07;2.00;;;32.50;46.00;;;-144.05;23.60;125687.94;4962597;28;20081;-88
2022/08/10 13:12:53;;;;;;;4.45;1.52;;;32.60;45.50;;;-144.05;23.57;125687.94;4962410;28;20541;-89
2022/08/10 13:15:33;;;;;;;3.88;1.55;;;32.60;46.10;;;-144.05;23.13;125687.94;4962585;28;20034;-90
2022/08/10 13:18:07;;;;;;;4.85;1.33;;;32.60;45.10;;;-144.05;23.13;125687.94;4963138;28;20113;-88
2022/08/10 13:20:39;;;;;;;2.13;1.30;;;32.30;44.20;;;-144.05;23.36;125687.94;4963073;28;20045;-88
2022/08/10 13:23:25;;;;;;;2.72;1.30;;;32.10;45.30;;;-144.05;23.62;125687.94;4963237;28;20030;-89
2022/08/10 13:25:56;;;;;;;2.50;1.33;;;32.00;45.10;;;-144.05;23.65;125687.94;4963427;28;20026;-91
2022/08/10 13:28:41;;;;;;;2.35;1.50;;;31.80;45.60;;;-144.05;23.74;125687.94;4981166;28;20070;-89
2022/08/10 13:31:19;;;;;;;2.63;1.20;;;31.70;45.20;;;-144.05;23.70;125687.94;4984360;28;20041;-89
2022/08/10 13:34:02;;;;;;;2.88;1.67;;;31.70;45.90;;;-144.05;23.51;125687.94;4967525;28;20285;-88
2022/08/10 13:36:37;;;;;;;2.15;1.42;;;31.80;45.80;;;-144.05;24.06;125687.94;4972049;28;20031;-88
2022/08/10 13:39:06;;;;;;;2.13;1.42;;;31.90;47.00;;;-144.05;23.51;125687.94;4989914;28;20404;-87
2022/08/10 13:41:45;;;;;;;2.30;1.50;;;32.00;45.80;;;-144.05;23.63;125687.94;4975766;28;20035;-88
2022/08/10 13:44:27;;;;;;;1.33;1.15;;;32.00;46.00;;;-144.05;23.41;125687.94;4972371;28;20034;-86
2022/08/10 13:46:56;;;;;;;3.05;1.33;;;31.90;45.70;;;-144.05;23.85;125687.94;4977603;28;20042;-89
2022/08/10 13:49:23;;;;;;;1.10;1.00;;;31.60;46.30;;;-144.05;23.67;125687.94;4977686;28;20245;-88
2022/08/10 13:51:53;;;;;;;2.42;1.35;;;31.50;46.00;;;-144.05;23.55;125687.94;4977899;28;20011;-89
2022/08/10 13:54:25;;;;;;;2.63;1.30;;;31.50;45.80;;;-144.05;23.70;125687.94;4979341;28;20038;-89
2022/08/10 13:56:54;;;;;;;2.25;1.40;;;31.20;46.00;;;-144.05;24.39;125687.94;4994473;28;20070;-87
2022/08/10 13:59:29;;;;;;;3.15;1.30;;;31.10;47.70;;;-144.05;23.95;125687.94;4988694;28;20062;-85
2022/08/10 14:02:01;;;;;;;4.80;1.50;;;31.20;46.30;;;-144.05;23.81;125687.94;4974216;28;20035;-87
2022/08/10 14:04:28;;;;;;;3.58;1.80;;;31.20;46.20;;;-144.05;24.10;125687.94;4975101;28;20031;-85
2022/08/10 14:06:59;;;;;;;2.60;1.35;;;31.40;47.30;;;-144.05;23.96;125687.94;4972534;28;20031;-90
2022/08/10 14:09:32;;;;;;;3.97;1.80;;;31.50;46.70;;;-144.05;23.88;125687.94;4967810;28;20049;-88
2022/08/10 14:12:00;;;;;;;2.47;1.30;;;31.60;46.40;;;-144.05;23.92;125687.94;4970372;28;20226;-89
2022/08/10 14:14:30;;;;;;;3.40;1.65;;;31.70;46.40;;;-144.05;23.33;125687.94;4967137;28;20062;-87
2022/08/10 14:16:59;;;;;;;1.58;1.27;;;31.60;45.00;;;-144.05;23.67;125687.94;4967865;28;20031;-88
2022/08/10 14:19:38;;;;;;;4.07;1.38;;;31.30;45.60;;;-144.05;23.93;125687.94;4961702;28;20030;-85
2022/08/10 14:22:05;;;;;;;3.13;1.17;;;31.00;45.90;;;-144.05;23.97;125687.94;4962834;28;20039;-91
2022/08/10 14:24:32;;;;;;;1.88;1.30;;;30.90;46.40;;;-144.05;24.04;125687.94;4977517;28;20154;-89
2022/08/10 14:27:13;;;;;;;2.38;1.35;;;30.90;46.60;;;-144.05;24.44;125687.94;4961263;28;20058;-89
2022/08/10 14:29:52;;;;;;;2.13;1.33;;;30.80;47.20;;;-144.05;24.25;125687.94;4960767;28;20027;-91
2022/08/10 14:32:26;;;;;;;2.60;1.33;;;30.80;46.70;;;-144.05;24.27;125687.94;4978232;28;20056;-89
2022/08/10 14:34:57;;;;;;;2.45;1.23;;;30.70;46.80;;;-144.05;24.18;125687.94;4965551;28;20039;-89
2022/08/10 14:37:48;;;;;;;3.42;1.10;;;30.70;46.60;;;-144.05;24.49;125687.94;4962024;28;20506;-87
2022/08/10 14:40:36;;;;;;;2.85;1.30;;;30.60;47.10;;;-144.05;24.15;125687.94;4961571;28;20041;-89
2022/08/10 14:43:22;;;;;;;1.73;1.20;;;30.60;46.40;;;-144.05;24.01;125687.94;4962701;28;20050;-87
2022/08/10 14:46:02;;;;;;;3.15;0.90;;;30.70;45.70;;;-144.05;23.62;125687.94;4960713;28;20023;-90
2022/08/10 14:48:38;;;;;;;2.05;1.25;;;30.60;45.40;;;-144.05;23.95;125687.94;4979160;28;20035;-87
2022/08/10 14:51:08;;;;;;;2.33;1.33;;;30.60;46.40;;;-144.05;24.00;125687.94;4961671;28;20027;-88
2022/08/10 14:53:38;;;;;;;2.60;1.27;;;30.60;46.40;;;-144.05;24.32;125687.94;4962448;28;20089;-86
2022/08/10 14:56:34;;;;;;;2.63;1.10;;;30.60;47.40;;;-144.05;24.58;125687.94;4961978;28;20026;-87
2022/08/10 14:59:07;;;;;;;;;;;30.60;47.20;;;-144.05;24.71;125687.94;4977913;28;20496;-88
2022/08/10 15:01:42;;;;;;;3.58;1.10;;;30.50;47.50;;;-144.05;24.57;125687.94;4961134;28;19981;-88
2022/08/10 15:04:15;;;;;;;2.57;0.97;;;30.50;47.20;;;-144.05;24.77;125687.94;4961071;28;20041;-88
2022/08/10 15:07:03;;;;;;;4.75;1.27;;;30.60;47.70;;;-144.05;24.51;125687.94;4961799;28;20353;-89
2022/08/10 15:09:43;;;;;;;2.10;1.08;;;30.40;47.00;;;-144.05;24.72;125687.94;4962033;28;20026;-88
2022/08/10 15:12:13;;;;;;;1.70;1.10;;;30.40;47.40;;;-144.05;24.67;125687.94;4962179;28;20127;-88
2022/08/10 15:14:47;;;;;;;1.25;1.10;;;30.50;47.50;;;-144.05;24.57;125687.94;4961767;28;20038;-88
2022/08/10 15:17:26;;;;;;;1.45;1.15;;;30.40;46.60;;;-144.05;24.06;125687.94;4977442;28;20469;-89